createdAt,value
2022-12-27T00:00:00.018Z,4.70
2022-12-27T00:02:26.899Z,4.70
2022-12-27T00:04:54.270Z,4.70
2022-12-27T00:07:21.157Z,4.60
2022-12-27T00:09:48.043Z,4.60
2022-12-27T00:12:19.953Z,4.70
2022-12-27T00:14:47.386Z,4.60
2022-12-27T00:17:14.193Z,4.60
2022-12-27T00:19:40.991Z,4.60
2022-12-27T00:22:08.366Z,4.60
2022-12-27T00:24:35.694Z,4.60
2022-12-27T00:27:02.605Z,4.50
2022-12-27T00:29:29.462Z,4.50
2022-12-27T00:31:56.384Z,4.50
2022-12-27T00:34:23.294Z,4.50
2022-12-27T00:36:50.119Z,4.50
2022-12-27T00:39:17.186Z,4.40
2022-12-27T00:41:45.787Z,4.30
2022-12-27T00:44:12.589Z,4.30
2022-12-27T00:46:39.479Z,4.20
2022-12-27T00:49:06.275Z,4.00
2022-12-27T00:51:33.099Z,4.00
2022-12-27T00:54:00.532Z,3.90
2022-12-27T00:56:30.153Z,3.80
2022-12-27T00:59:00.479Z,3.70
2022-12-27T01:01:30.065Z,3.60
2022-12-27T01:03:57.954Z,3.60
2022-12-27T01:06:28.783Z,3.50
2022-12-27T01:08:56.774Z,3.40
2022-12-27T01:11:24.437Z,3.40
2022-12-27T01:13:51.316Z,3.30
2022-12-27T01:16:20.952Z,3.30
2022-12-27T01:18:48.497Z,3.20
2022-12-27T01:21:18.075Z,3.20
2022-12-27T01:23:45.233Z,3.20
2022-12-27T01:26:15.660Z,3.10
2022-12-27T01:28:42.694Z,3.10
2022-12-27T01:31:12.561Z,3.00
2022-12-27T01:33:39.791Z,3.00
2022-12-27T01:36:21.472Z,3.00
2022-12-27T01:38:49.029Z,2.90
2022-12-27T01:41:38.779Z,2.80
2022-12-27T01:44:47.050Z,2.80
2022-12-27T01:47:35.844Z,2.70
2022-12-27T01:50:27.616Z,2.70
2022-12-27T01:53:12.973Z,2.60
2022-12-27T01:55:56.937Z,2.60
2022-12-27T01:58:41.918Z,2.60
2022-12-27T02:01:22.270Z,2.60
2022-12-27T02:04:03.769Z,2.60
2022-12-27T02:06:32.702Z,2.60
2022-12-27T02:09:30.390Z,2.60
2022-12-27T02:11:58.066Z,2.60
2022-12-27T02:14:34.345Z,2.50
2022-12-27T02:17:09.740Z,2.50
2022-12-27T02:19:42.767Z,2.60
2022-12-27T02:22:28.462Z,2.50
2022-12-27T02:25:25.536Z,2.50
2022-12-27T02:28:14.110Z,2.40
2022-12-27T02:30:43.575Z,2.30
2022-12-27T02:33:17.338Z,2.30
2022-12-27T02:35:52.591Z,2.20
2022-12-27T02:38:23.628Z,2.10
2022-12-27T02:41:10.765Z,2.00
2022-12-27T02:43:56.670Z,2.00
2022-12-27T02:46:50.745Z,1.90
2022-12-27T02:49:48.350Z,1.80
2022-12-27T02:52:55.255Z,1.70
2022-12-27T02:56:03.845Z,1.60
2022-12-27T02:59:00.034Z,1.50
2022-12-27T03:02:19.901Z,1.50
2022-12-27T03:04:52.458Z,1.40
2022-12-27T03:07:34.387Z,1.30
2022-12-27T03:10:48.292Z,1.30
2022-12-27T03:13:47.468Z,1.20
2022-12-27T03:16:31.536Z,1.10
2022-12-27T03:19:47.641Z,1.10
2022-12-27T03:22:35.917Z,1.00
2022-12-27T03:25:23.215Z,0.90
2022-12-27T03:28:12.303Z,0.90
2022-12-27T03:30:59.448Z,0.90
2022-12-27T03:33:29.112Z,0.80
2022-12-27T03:36:37.770Z,0.70
2022-12-27T03:39:26.307Z,0.70
2022-12-27T03:42:24.751Z,0.60
2022-12-27T03:44:51.855Z,0.60
2022-12-27T03:47:42.934Z,0.60
2022-12-27T03:50:28.363Z,0.50
2022-12-27T03:53:08.131Z,0.50
2022-12-27T03:55:37.460Z,0.50
2022-12-27T03:58:04.633Z,0.50
2022-12-27T04:00:31.452Z,0.50
2022-12-27T04:02:58.376Z,0.50
2022-12-27T04:05:25.253Z,0.50
2022-12-27T04:08:10.848Z,0.40
2022-12-27T04:10:56.340Z,0.40
2022-12-27T04:13:41.703Z,0.50
2022-12-27T04:16:27.039Z,0.40
2022-12-27T04:19:12.643Z,0.40
2022-12-27T04:21:58.304Z,0.50
2022-12-27T04:24:43.659Z,0.50
2022-12-27T04:27:29.045Z,0.60
2022-12-27T04:30:14.361Z,0.60
2022-12-27T04:33:00.108Z,0.70
2022-12-27T04:35:26.938Z,0.60
2022-12-27T04:37:53.977Z,0.60
2022-12-27T04:40:40.034Z,0.60
2022-12-27T04:43:26.956Z,0.60
2022-12-27T04:46:13.588Z,0.60
2022-12-27T04:48:59.071Z,0.60
2022-12-27T04:51:44.454Z,0.70
2022-12-27T04:54:38.469Z,0.60
2022-12-27T04:57:06.150Z,0.60
2022-12-27T04:59:51.547Z,0.60
2022-12-27T05:02:19.378Z,0.60
2022-12-27T05:04:47.917Z,0.50
2022-12-27T05:07:34.398Z,0.50
2022-12-27T05:10:22.652Z,0.50
2022-12-27T05:13:08.227Z,0.40
2022-12-27T05:15:35.053Z,0.50
2022-12-27T05:18:01.888Z,0.40
2022-12-27T05:20:28.662Z,0.50
2022-12-27T05:23:14.035Z,0.50
2022-12-27T05:25:45.907Z,0.50
2022-12-27T05:28:13.712Z,0.50
2022-12-27T05:30:42.541Z,0.60
2022-12-27T05:33:09.655Z,0.60
2022-12-27T05:35:36.620Z,0.60
2022-12-27T05:38:03.960Z,0.60
2022-12-27T05:40:31.125Z,0.60
2022-12-27T05:43:02.370Z,0.60
2022-12-27T05:45:29.817Z,0.60
2022-12-27T05:47:58.240Z,0.60
2022-12-27T05:50:25.133Z,0.60
2022-12-27T05:52:52.028Z,0.60
2022-12-27T05:55:19.317Z,0.60
2022-12-27T05:57:46.184Z,0.60
2022-12-27T06:00:13.634Z,0.60
2022-12-27T06:02:42.287Z,0.60
2022-12-27T06:05:10.519Z,0.50
2022-12-27T06:07:37.976Z,0.50
2022-12-27T06:10:07.139Z,0.50
2022-12-27T06:12:33.924Z,0.50
2022-12-27T06:15:00.730Z,0.50
2022-12-27T06:17:27.586Z,0.40
2022-12-27T06:19:57.288Z,0.40
2022-12-27T06:22:24.860Z,0.40
2022-12-27T06:24:51.862Z,0.40
2022-12-27T06:27:18.800Z,0.40
2022-12-27T06:29:45.765Z,0.30
2022-12-27T06:32:12.581Z,0.30
2022-12-27T06:34:39.354Z,0.30
2022-12-27T06:37:06.160Z,0.20
2022-12-27T06:39:32.977Z,0.20
2022-12-27T06:41:59.822Z,0.20
2022-12-27T06:44:26.869Z,0.20
2022-12-27T06:46:53.678Z,0.10
2022-12-27T06:49:20.536Z,0.10
2022-12-27T06:51:52.533Z,0.10
2022-12-27T06:54:22.723Z,0.10
2022-12-27T06:56:49.685Z,0.20
2022-12-27T06:59:16.489Z,0.10
2022-12-27T07:01:43.572Z,0.10
2022-12-27T07:04:10.768Z,0.00
2022-12-27T07:06:38.169Z,0.00
2022-12-27T07:09:05.194Z,0.00
2022-12-27T07:11:33.849Z,0.00
2022-12-27T07:14:00.650Z,0.00
2022-12-27T07:16:29.520Z,0.00
2022-12-27T07:18:58.163Z,0.10
2022-12-27T07:21:27.303Z,0.10
2022-12-27T07:23:54.785Z,0.10
2022-12-27T07:26:29.118Z,0.10
2022-12-27T07:29:00.528Z,0.10
2022-12-27T07:31:30.447Z,0.10
2022-12-27T07:33:58.772Z,0.20
2022-12-27T07:36:28.722Z,0.20
2022-12-27T07:38:55.728Z,0.10
2022-12-27T07:41:22.700Z,0.20
2022-12-27T07:43:49.670Z,0.20
2022-12-27T07:46:25.074Z,0.30
2022-12-27T07:48:55.926Z,0.30
2022-12-27T07:51:23.941Z,0.30
2022-12-27T07:53:51.795Z,0.40
2022-12-27T07:56:26.180Z,0.40
2022-12-27T07:58:55.776Z,0.60
2022-12-27T08:01:24.254Z,0.60
2022-12-27T08:03:51.929Z,0.70
2022-12-27T08:06:24.674Z,0.80
2022-12-27T08:08:52.933Z,0.90
2022-12-27T08:11:20.389Z,1.00
2022-12-27T08:13:47.675Z,1.10
2022-12-27T08:16:21.083Z,1.20
2022-12-27T08:18:48.283Z,1.20
2022-12-27T08:21:15.771Z,1.30
2022-12-27T08:23:43.083Z,1.30
2022-12-27T08:26:10.223Z,1.30
2022-12-27T08:28:37.642Z,1.30
2022-12-27T08:31:08.259Z,1.40
2022-12-27T08:33:35.831Z,1.40
2022-12-27T08:36:53.418Z,1.50
2022-12-27T08:38:55.862Z,1.60
2022-12-27T08:41:23.644Z,1.60
2022-12-27T08:43:50.698Z,1.70
2022-12-27T08:46:19.489Z,1.80
2022-12-27T08:48:50.565Z,1.80
2022-12-27T08:51:28.365Z,1.90
2022-12-27T08:53:58.731Z,2.00
2022-12-27T08:56:25.611Z,2.10
2022-12-27T08:58:52.514Z,2.10
2022-12-27T09:01:19.707Z,2.20
2022-12-27T09:03:46.698Z,2.30
2022-12-27T09:06:19.878Z,2.40
2022-12-27T09:08:48.440Z,2.50
2022-12-27T09:11:21.222Z,2.60
2022-12-27T09:13:48.368Z,2.70
2022-12-27T09:16:17.985Z,2.80
2022-12-27T09:18:48.565Z,2.80
2022-12-27T09:21:17.184Z,2.90
2022-12-27T09:23:44.688Z,3.00
2022-12-27T09:26:13.794Z,3.10
2022-12-27T09:28:41.301Z,3.20
2022-12-27T09:31:10.247Z,3.20
2022-12-27T09:33:38.080Z,3.30
2022-12-27T09:36:07.832Z,3.40
2022-12-27T09:38:35.566Z,3.50
2022-12-27T09:41:05.982Z,3.50
2022-12-27T09:44:00.528Z,3.60
2022-12-27T09:46:48.652Z,3.80
2022-12-27T09:49:23.768Z,4.00
2022-12-27T09:51:54.478Z,4.40
2022-12-27T09:54:37.315Z,4.90
2022-12-27T09:57:20.474Z,5.50
2022-12-27T09:59:50.119Z,6.00
2022-12-27T10:02:25.714Z,6.60
2022-12-27T10:05:19.737Z,7.10
2022-12-27T10:08:06.391Z,7.60
2022-12-27T10:11:04.382Z,8.30
2022-12-27T10:13:57.631Z,8.80
2022-12-27T10:16:47.190Z,9.00
2022-12-27T10:19:32.260Z,9.60
2022-12-27T10:22:24.376Z,10.00
2022-12-27T10:24:56.479Z,10.30
2022-12-27T10:27:27.116Z,10.50
2022-12-27T10:29:56.783Z,10.70
2022-12-27T10:32:24.490Z,10.70
2022-12-27T10:35:01.340Z,10.80
2022-12-27T10:37:29.110Z,11.00
2022-12-27T10:40:07.539Z,11.10
2022-12-27T10:42:38.460Z,11.40
2022-12-27T10:45:24.941Z,11.90
2022-12-27T10:47:53.723Z,12.40
2022-12-27T10:50:24.892Z,12.70
2022-12-27T10:52:57.281Z,12.90
2022-12-27T10:55:37.034Z,12.90
2022-12-27T10:58:28.862Z,12.50
2022-12-27T11:00:57.414Z,11.90
2022-12-27T11:03:26.343Z,11.70
2022-12-27T11:06:05.799Z,11.50
2022-12-27T11:08:33.115Z,11.30
2022-12-27T11:11:19.436Z,11.10
2022-12-27T11:13:47.917Z,10.80
2022-12-27T11:16:17.352Z,11.00
2022-12-27T11:18:51.364Z,10.90
2022-12-27T11:21:25.833Z,10.90
2022-12-27T11:23:59.529Z,10.60
2022-12-27T11:26:33.991Z,10.30
2022-12-27T11:29:02.494Z,10.20
2022-12-27T11:31:31.875Z,9.70
2022-12-27T11:34:03.703Z,9.50
2022-12-27T11:36:42.026Z,9.60
2022-12-27T11:39:52.716Z,9.90
2022-12-27T11:42:40.608Z,10.40
2022-12-27T11:45:12.301Z,10.50
2022-12-27T11:48:01.197Z,11.00
2022-12-27T11:50:28.088Z,11.00
2022-12-27T11:53:10.112Z,10.60
2022-12-27T11:56:14.376Z,10.20
2022-12-27T11:59:10.522Z,9.60
2022-12-27T12:01:59.338Z,9.20
2022-12-27T12:04:47.633Z,9.00
2022-12-27T12:07:36.993Z,9.10
2022-12-27T12:10:18.648Z,8.90
2022-12-27T12:13:07.047Z,8.70
2022-12-27T12:15:56.325Z,8.60
2022-12-27T12:18:57.642Z,8.60
2022-12-27T12:22:06.367Z,8.30
2022-12-27T12:24:56.331Z,8.40
2022-12-27T12:27:35.991Z,8.20
2022-12-27T12:30:41.988Z,8.00
2022-12-27T12:33:53.024Z,7.70
2022-12-27T12:36:52.731Z,7.50
2022-12-27T12:39:53.566Z,7.30
2022-12-27T12:42:45.099Z,6.90
2022-12-27T12:45:32.306Z,6.60
2022-12-27T12:48:28.195Z,6.50
2022-12-27T12:51:19.820Z,6.30
2022-12-27T12:54:23.265Z,6.10
2022-12-27T12:57:06.453Z,6.00
2022-12-27T12:59:34.310Z,5.90
2022-12-27T13:02:34.891Z,5.80
2022-12-27T13:05:38.635Z,5.70
2022-12-27T13:08:29.425Z,5.60
2022-12-27T13:11:02.290Z,5.60
2022-12-27T13:13:58.878Z,5.60
2022-12-27T13:16:41.070Z,5.60
2022-12-27T13:19:39.306Z,5.60
2022-12-27T13:22:15.909Z,5.60
2022-12-27T13:24:58.136Z,5.60
2022-12-27T13:27:43.092Z,5.60
2022-12-27T13:30:19.123Z,5.60
2022-12-27T13:32:55.065Z,5.50
2022-12-27T13:35:35.776Z,5.40
2022-12-27T13:38:47.550Z,5.30
2022-12-27T13:41:30.967Z,5.20
2022-12-27T13:44:00.774Z,5.20
2022-12-27T13:46:43.334Z,5.10
2022-12-27T13:49:31.456Z,5.10
2022-12-27T13:52:16.063Z,5.00
2022-12-27T13:54:49.038Z,5.00
2022-12-27T13:58:01.975Z,5.00
2022-12-27T14:01:03.546Z,5.10
2022-12-27T14:04:06.327Z,5.10
2022-12-27T14:07:03.271Z,5.20
2022-12-27T14:10:24.239Z,5.20
2022-12-27T14:13:10.485Z,5.20
2022-12-27T14:16:00.893Z,5.20
2022-12-27T14:18:49.070Z,5.30
2022-12-27T14:21:24.859Z,5.30
2022-12-27T14:24:16.491Z,5.30
2022-12-27T14:26:58.448Z,5.40
2022-12-27T14:29:56.073Z,5.40
2022-12-27T14:32:38.057Z,5.40
2022-12-27T14:35:46.917Z,5.30
2022-12-27T14:38:22.864Z,5.20
2022-12-27T14:41:08.240Z,5.10
2022-12-27T14:44:23.049Z,5.10
2022-12-27T14:47:27.478Z,5.00
2022-12-27T14:50:31.889Z,4.90
2022-12-27T14:53:36.538Z,4.80
2022-12-27T14:56:42.552Z,4.70
2022-12-27T14:59:21.321Z,4.70
2022-12-27T15:02:35.646Z,4.60
2022-12-27T15:05:11.962Z,4.50
2022-12-27T15:08:13.928Z,4.40
2022-12-27T15:10:40.834Z,4.30
2022-12-27T15:13:46.084Z,4.30
2022-12-27T15:16:21.829Z,4.20
2022-12-27T15:19:04.751Z,4.10
2022-12-27T15:21:59.106Z,4.10
2022-12-27T15:24:38.774Z,4.00
2022-12-27T15:27:21.369Z,4.00
2022-12-27T15:29:55.672Z,3.90
2022-12-27T15:32:27.625Z,3.80
2022-12-27T15:34:58.662Z,3.80
2022-12-27T15:37:47.351Z,3.70
2022-12-27T15:40:40.665Z,3.70
2022-12-27T15:43:16.472Z,3.60
2022-12-27T15:46:17.916Z,3.50
2022-12-27T15:49:17.688Z,3.50
2022-12-27T15:51:57.659Z,3.40
2022-12-27T15:54:43.492Z,3.40
2022-12-27T15:57:52.073Z,3.30
2022-12-27T16:00:24.894Z,3.30
2022-12-27T16:02:55.630Z,3.20
2022-12-27T16:05:22.711Z,3.20
2022-12-27T16:07:58.696Z,3.10
2022-12-27T16:10:31.839Z,3.10
2022-12-27T16:13:04.812Z,3.10
2022-12-27T16:15:43.207Z,3.10
2022-12-27T16:18:31.253Z,3.10
2022-12-27T16:21:05.662Z,3.10
2022-12-27T16:23:34.518Z,3.10
2022-12-27T16:26:09.698Z,3.00
2022-12-27T16:28:37.973Z,3.00
2022-12-27T16:31:12.414Z,3.00
2022-12-27T16:33:41.187Z,2.90
2022-12-27T16:36:23.456Z,2.90
2022-12-27T16:39:14.461Z,2.80
2022-12-27T16:41:56.132Z,2.80
2022-12-27T16:44:26.287Z,2.70
2022-12-27T16:47:23.790Z,2.70
2022-12-27T16:50:05.574Z,2.60
2022-12-27T16:53:31.563Z,2.50
2022-12-27T16:56:07.800Z,2.50
2022-12-27T16:58:37.597Z,2.40
2022-12-27T17:01:26.006Z,2.40
2022-12-27T17:03:57.628Z,2.40
2022-12-27T17:06:33.566Z,2.40
2022-12-27T17:09:10.003Z,2.30
2022-12-27T17:11:42.150Z,2.30
2022-12-27T17:14:18.500Z,2.20
2022-12-27T17:16:51.488Z,2.20
2022-12-27T17:19:35.240Z,2.10
2022-12-27T17:22:06.431Z,2.00
2022-12-27T17:24:33.843Z,1.90
2022-12-27T17:27:12.818Z,1.90
2022-12-27T17:30:02.115Z,1.80
2022-12-27T17:32:47.502Z,1.80
2022-12-27T17:35:33.074Z,1.70
2022-12-27T17:38:12.199Z,1.70
2022-12-27T17:40:41.988Z,1.60
2022-12-27T17:43:39.653Z,1.70
2022-12-27T17:46:38.054Z,1.60
2022-12-27T17:49:07.641Z,1.60
2022-12-27T17:51:38.534Z,1.50
2022-12-27T17:54:42.890Z,1.50
2022-12-27T17:57:32.015Z,1.50
2022-12-27T18:00:00.000Z,1.40
2022-12-27T18:02:35.813Z,1.30
2022-12-27T18:05:12.387Z,1.30
2022-12-27T18:07:39.561Z,1.20
2022-12-27T18:10:15.221Z,1.10
2022-12-27T18:12:52.298Z,1.10
2022-12-27T18:15:24.838Z,1.00
2022-12-27T18:17:58.317Z,1.00
2022-12-27T18:20:28.343Z,0.90
2022-12-27T18:23:01.006Z,0.90
2022-12-27T18:25:40.232Z,0.90
2022-12-27T18:28:16.128Z,0.90
2022-12-27T18:30:46.920Z,0.80
2022-12-27T18:33:16.028Z,0.80
2022-12-27T18:35:49.419Z,0.80
2022-12-27T18:38:51.697Z,0.80
2022-12-27T18:41:23.025Z,0.80
2022-12-27T18:44:00.978Z,0.70
2022-12-27T18:46:32.236Z,0.70
2022-12-27T18:48:59.917Z,0.70
2022-12-27T18:51:37.768Z,0.60
2022-12-27T18:54:29.412Z,0.60
2022-12-27T18:56:57.342Z,0.60
2022-12-27T18:59:28.667Z,0.50
2022-12-27T19:01:58.690Z,0.40
2022-12-27T19:04:33.309Z,0.40
2022-12-27T19:07:13.693Z,0.30
2022-12-27T19:09:42.560Z,0.30
2022-12-27T19:12:37.816Z,0.30
2022-12-27T19:15:20.696Z,0.30
2022-12-27T19:17:49.996Z,0.30
2022-12-27T19:20:24.363Z,0.30
2022-12-27T19:22:55.417Z,0.30
2022-12-27T19:25:29.349Z,0.30
2022-12-27T19:28:11.486Z,0.20
2022-12-27T19:30:40.706Z,0.20
2022-12-27T19:33:14.263Z,0.10
2022-12-27T19:35:43.004Z,0.10
2022-12-27T19:38:25.223Z,0.10
2022-12-27T19:41:02.807Z,0.10
2022-12-27T19:43:36.257Z,0.10
2022-12-27T19:46:03.470Z,0.10
2022-12-27T19:48:30.400Z,0.10
2022-12-27T19:51:00.062Z,0.00
2022-12-27T19:53:39.799Z,0.10
2022-12-27T19:56:10.784Z,0.10
2022-12-27T19:58:38.292Z,0.10
2022-12-27T20:01:05.345Z,0.10
2022-12-27T20:03:32.333Z,0.10
2022-12-27T20:06:11.267Z,0.10
2022-12-27T20:08:48.219Z,0.00
2022-12-27T20:11:18.576Z,-0.10
2022-12-27T20:13:46.035Z,-0.10
2022-12-27T20:16:14.979Z,-0.20
2022-12-27T20:18:42.838Z,-0.20
2022-12-27T20:21:18.121Z,-0.30
2022-12-27T20:23:45.265Z,-0.40
2022-12-27T20:26:16.310Z,-0.50
2022-12-27T20:28:43.364Z,-0.60
2022-12-27T20:31:12.905Z,-0.70
2022-12-27T20:33:40.001Z,-0.70
2022-12-27T20:36:07.801Z,-0.80
2022-12-27T20:38:35.945Z,-0.80
2022-12-27T20:41:14.523Z,-0.80
2022-12-27T20:43:41.551Z,-0.80
2022-12-27T20:46:18.416Z,-0.90
2022-12-27T20:48:46.870Z,-0.90
2022-12-27T20:51:15.220Z,-1.00
2022-12-27T20:53:43.585Z,-1.00
2022-12-27T20:56:12.939Z,-1.10
2022-12-27T20:58:40.158Z,-1.10
2022-12-27T21:01:15.186Z,-1.20
2022-12-27T21:03:43.185Z,-1.20
2022-12-27T21:06:15.608Z,-1.30
2022-12-27T21:08:47.821Z,-1.30
2022-12-27T21:11:26.875Z,-1.30
2022-12-27T21:13:53.839Z,-1.40
2022-12-27T21:16:23.521Z,-1.40
2022-12-27T21:18:50.673Z,-1.50
2022-12-27T21:21:28.856Z,-1.50
2022-12-27T21:23:57.986Z,-1.60
2022-12-27T21:26:31.619Z,-1.60
2022-12-27T21:28:59.923Z,-1.60
2022-12-27T21:31:27.871Z,-1.60
2022-12-27T21:33:55.056Z,-1.70
2022-12-27T21:36:27.577Z,-1.70
2022-12-27T21:38:55.460Z,-1.70
2022-12-27T21:41:27.990Z,-1.80
2022-12-27T21:43:55.085Z,-1.80
2022-12-27T21:46:27.116Z,-1.80
2022-12-27T21:49:07.196Z,-1.80
2022-12-27T21:51:35.425Z,-1.80
2022-12-27T21:54:02.980Z,-1.90
2022-12-27T21:56:30.220Z,-1.90
2022-12-27T21:58:59.390Z,-1.90
2022-12-27T22:01:29.252Z,-1.90
2022-12-27T22:03:57.419Z,-1.90
2022-12-27T22:06:28.656Z,-1.90
2022-12-27T22:08:58.675Z,-2.00
2022-12-27T22:11:26.872Z,-2.00
2022-12-27T22:13:53.816Z,-2.00
2022-12-27T22:16:29.385Z,-2.00
2022-12-27T22:18:56.948Z,-2.10
2022-12-27T22:21:27.703Z,-2.10
2022-12-27T22:23:56.677Z,-2.10
2022-12-27T22:26:27.141Z,-2.10
2022-12-27T22:28:54.328Z,-2.10
2022-12-27T22:31:24.282Z,-2.10
2022-12-27T22:33:51.525Z,-2.10
2022-12-27T22:36:23.878Z,-2.10
2022-12-27T22:38:51.367Z,-2.10
2022-12-27T22:41:25.982Z,-2.10
2022-12-27T22:44:01.806Z,-2.20
2022-12-27T22:46:51.278Z,-2.20
2022-12-27T22:49:17.496Z,-2.10
2022-12-27T22:51:44.641Z,-2.10
2022-12-27T22:54:11.648Z,-2.10
2022-12-27T22:56:40.827Z,-2.10
2022-12-27T22:59:19.001Z,-2.00
2022-12-27T23:01:46.247Z,-2.00
2022-12-27T23:04:14.136Z,-2.00
2022-12-27T23:06:41.953Z,-1.90
2022-12-27T23:09:09.858Z,-2.00
2022-12-27T23:11:40.734Z,-2.00
2022-12-27T23:14:12.666Z,-2.00
2022-12-27T23:16:44.937Z,-2.00
2022-12-27T23:19:13.589Z,-2.00
2022-12-27T23:21:40.840Z,-2.00
2022-12-27T23:24:08.225Z,-1.90
2022-12-27T23:26:35.780Z,-1.80
2022-12-27T23:29:02.731Z,-1.70
2022-12-27T23:31:29.824Z,-1.70
2022-12-27T23:33:56.754Z,-1.60
2022-12-27T23:36:23.943Z,-1.50
2022-12-27T23:38:51.198Z,-1.40
2022-12-27T23:41:21.510Z,-1.30
2022-12-27T23:43:54.212Z,-1.30
2022-12-27T23:46:25.804Z,-1.20
2022-12-27T23:48:53.396Z,-1.20
2022-12-27T23:51:20.685Z,-1.30
2022-12-27T23:53:47.788Z,-1.20
2022-12-27T23:56:20.842Z,-1.20
2022-12-27T23:58:48.598Z,-1.20
